sensor_id;sensor_type;location;lat;lon;timestamp;P1;durP1;ratioP1;P2;durP2;ratioP2
18783;SDS011;9520;50.954;6.968;2024-02-28T00:00:16;5.57;;;2.58;;
18783;SDS011;9520;50.954;6.968;2024-02-28T00:00:39;7.30;;;2.80;;
18783;SDS011;9520;50.954;6.968;2024-02-28T00:01:01;8.95;;;3.05;;
18783;SDS011;9520;50.954;6.968;2024-02-28T00:01:23;4.70;;;2.78;;
18783;SDS011;9520;50.954;6.968;2024-02-28T00:01:49;5.88;;;3.42;;
18783;SDS011;9520;50.954;6.968;2024-02-28T00:02:11;4.78;;;2.70;;
18783;SDS011;9520;50.954;6.968;2024-02-28T00:02:32;3.53;;;2.53;;
18783;SDS011;9520;50.954;6.968;2024-02-28T00:02:54;6.70;;;2.83;;
18783;SDS011;9520;50.954;6.968;2024-02-28T00:03:16;5.95;;;3.35;;
18783;SDS011;9520;50.954;6.968;2024-02-28T00:03:37;10.88;;;3.40;;
18783;SDS011;9520;50.954;6.968;2024-02-28T00:04:00;5.30;;;2.65;;
18783;SDS011;9520;50.954;6.968;2024-02-28T00:04:22;4.45;;;2.85;;
18783;SDS011;9520;50.954;6.968;2024-02-28T00:04:43;7.90;;;3.40;;
18783;SDS011;9520;50.954;6.968;2024-02-28T00:05:06;5.90;;;3.45;;
18783;SDS011;9520;50.954;6.968;2024-02-28T00:05:28;5.35;;;2.95;;
18783;SDS011;9520;50.954;6.968;2024-02-28T00:05:50;7.65;;;3.22;;
18783;SDS011;9520;50.954;6.968;2024-02-28T00:06:15;6.60;;;3.17;;
18783;SDS011;9520;50.954;6.968;2024-02-28T00:06:37;3.40;;;2.15;;
18783;SDS011;9520;50.954;6.968;2024-02-28T00:07:01;6.38;;;2.90;;
18783;SDS011;9520;50.954;6.968;2024-02-28T00:07:22;4.05;;;2.95;;
18783;SDS011;9520;50.954;6.968;2024-02-28T00:07:44;5.18;;;3.08;;
18783;SDS011;9520;50.954;6.968;2024-02-28T00:08:07;5.32;;;2.92;;
18783;SDS011;9520;50.954;6.968;2024-02-28T00:08:29;4.07;;;2.40;;
18783;SDS011;9520;50.954;6.968;2024-02-28T00:08:51;5.03;;;2.78;;
18783;SDS011;9520;50.954;6.968;2024-02-28T00:09:15;4.43;;;2.63;;
18783;SDS011;9520;50.954;6.968;2024-02-28T00:09:37;6.13;;;3.25;;
18783;SDS011;9520;50.954;6.968;2024-02-28T00:09:58;7.80;;;3.55;;
18783;SDS011;9520;50.954;6.968;2024-02-28T00:10:20;7.50;;;3.25;;
18783;SDS011;9520;50.954;6.968;2024-02-28T00:10:44;5.10;;;3.08;;
18783;SDS011;9520;50.954;6.968;2024-02-28T00:11:06;3.70;;;2.50;;
18783;SDS011;9520;50.954;6.968;2024-02-28T00:11:28;4.97;;;3.00;;
18783;SDS011;9520;50.954;6.968;2024-02-28T00:11:49;4.80;;;2.92;;
18783;SDS011;9520;50.954;6.968;2024-02-28T00:12:11;5.43;;;2.97;;
18783;SDS011;9520;50.954;6.968;2024-02-28T00:12:34;5.25;;;3.17;;
18783;SDS011;9520;50.954;6.968;2024-02-28T00:12:56;7.70;;;3.10;;
18783;SDS011;9520;50.954;6.968;2024-02-28T00:13:17;7.60;;;2.67;;
18783;SDS011;9520;50.954;6.968;2024-02-28T00:13:41;4.97;;;2.78;;
18783;SDS011;9520;50.954;6.968;2024-02-28T00:14:03;4.60;;;2.72;;
18783;SDS011;9520;50.954;6.968;2024-02-28T00:14:25;7.78;;;3.08;;
18783;SDS011;9520;50.954;6.968;2024-02-28T00:14:47;7.45;;;3.50;;
18783;SDS011;9520;50.954;6.968;2024-02-28T00:15:09;9.55;;;3.17;;
18783;SDS011;9520;50.954;6.968;2024-02-28T00:15:32;15.15;;;2.70;;
18783;SDS011;9520;50.954;6.968;2024-02-28T00:15:54;6.43;;;3.13;;
18783;SDS011;9520;50.954;6.968;2024-02-28T00:16:16;5.30;;;2.90;;
18783;SDS011;9520;50.954;6.968;2024-02-28T00:16:39;6.22;;;2.85;;
18783;SDS011;9520;50.954;6.968;2024-02-28T00:17:01;3.45;;;2.38;;
18783;SDS011;9520;50.954;6.968;2024-02-28T00:17:23;3.50;;;2.50;;
18783;SDS011;9520;50.954;6.968;2024-02-28T00:17:45;4.28;;;3.08;;
18783;SDS011;9520;50.954;6.968;2024-02-28T00:18:07;5.60;;;2.88;;
18783;SDS011;9520;50.954;6.968;2024-02-28T00:18:30;4.47;;;2.92;;
18783;SDS011;9520;50.954;6.968;2024-02-28T00:18:52;4.13;;;2.75;;
18783;SDS011;9520;50.954;6.968;2024-02-28T00:19:14;4.15;;;2.60;;
18783;SDS011;9520;50.954;6.968;2024-02-28T00:19:36;6.30;;;2.50;;
18783;SDS011;9520;50.954;6.968;2024-02-28T00:19:58;3.80;;;2.55;;
18783;SDS011;9520;50.954;6.968;2024-02-28T00:20:19;10.88;;;2.85;;
18783;SDS011;9520;50.954;6.968;2024-02-28T00:20:43;8.52;;;3.47;;
18783;SDS011;9520;50.954;6.968;2024-02-28T00:21:05;4.25;;;2.58;;
18783;SDS011;9520;50.954;6.968;2024-02-28T00:21:27;7.10;;;2.40;;
18783;SDS011;9520;50.954;6.968;2024-02-28T00:21:48;8.48;;;2.88;;
18783;SDS011;9520;50.954;6.968;2024-02-28T00:22:12;4.45;;;2.67;;
18783;SDS011;9520;50.954;6.968;2024-02-28T00:22:34;8.05;;;2.63;;
18783;SDS011;9520;50.954;6.968;2024-02-28T00:22:57;6.57;;;3.40;;
18783;SDS011;9520;50.954;6.968;2024-02-28T00:23:19;3.13;;;2.33;;
18783;SDS011;9520;50.954;6.968;2024-02-28T00:23:40;6.05;;;2.55;;
18783;SDS011;9520;50.954;6.968;2024-02-28T00:24:03;7.75;;;3.05;;
18783;SDS011;9520;50.954;6.968;2024-02-28T00:24:25;8.73;;;3.40;;
18783;SDS011;9520;50.954;6.968;2024-02-28T00:24:47;10.60;;;2.97;;
18783;SDS011;9520;50.954;6.968;2024-02-28T00:25:09;7.15;;;2.88;;
18783;SDS011;9520;50.954;6.968;2024-02-28T00:25:32;3.65;;;2.33;;
18783;SDS011;9520;50.954;6.968;2024-02-28T00:25:54;7.93;;;2.35;;
18783;SDS011;9520;50.954;6.968;2024-02-28T00:26:16;11.38;;;3.53;;
18783;SDS011;9520;50.954;6.968;2024-02-28T00:26:41;7.22;;;3.60;;
18783;SDS011;9520;50.954;6.968;2024-02-28T00:27:03;5.93;;;2.70;;
18783;SDS011;9520;50.954;6.968;2024-02-28T00:27:25;6.35;;;3.10;;
18783;SDS011;9520;50.954;6.968;2024-02-28T00:27:47;8.35;;;3.25;;
18783;SDS011;9520;50.954;6.968;2024-02-28T00:28:09;4.90;;;3.03;;
18783;SDS011;9520;50.954;6.968;2024-02-28T00:28:30;3.47;;;2.58;;
18783;SDS011;9520;50.954;6.968;2024-02-28T00:28:53;4.55;;;2.83;;
18783;SDS011;9520;50.954;6.968;2024-02-28T00:29:15;7.63;;;3.17;;
18783;SDS011;9520;50.954;6.968;2024-02-28T00:29:36;6.18;;;3.05;;
18783;SDS011;9520;50.954;6.968;2024-02-28T00:29:58;4.25;;;2.42;;
18783;SDS011;9520;50.954;6.968;2024-02-28T00:30:20;5.63;;;3.00;;
18783;SDS011;9520;50.954;6.968;2024-02-28T00:30:42;9.02;;;3.15;;
18783;SDS011;9520;50.954;6.968;2024-02-28T00:31:04;5.80;;;3.00;;
18783;SDS011;9520;50.954;6.968;2024-02-28T00:31:26;4.88;;;2.55;;
18783;SDS011;9520;50.954;6.968;2024-02-28T00:31:47;5.30;;;2.72;;
18783;SDS011;9520;50.954;6.968;2024-02-28T00:32:09;4.23;;;2.87;;
18783;SDS011;9520;50.954;6.968;2024-02-28T00:32:30;4.05;;;2.53;;
18783;SDS011;9520;50.954;6.968;2024-02-28T00:32:53;7.53;;;2.92;;
18783;SDS011;9520;50.954;6.968;2024-02-28T00:33:15;6.70;;;3.10;;
18783;SDS011;9520;50.954;6.968;2024-02-28T00:33:37;5.68;;;3.05;;
18783;SDS011;9520;50.954;6.968;2024-02-28T00:33:58;7.97;;;2.85;;
18783;SDS011;9520;50.954;6.968;2024-02-28T00:34:20;8.30;;;2.97;;
18783;SDS011;9520;50.954;6.968;2024-02-28T00:34:42;11.95;;;3.13;;
18783;SDS011;9520;50.954;6.968;2024-02-28T00:35:05;12.10;;;3.45;;
18783;SDS011;9520;50.954;6.968;2024-02-28T00:35:28;4.80;;;2.83;;
18783;SDS011;9520;50.954;6.968;2024-02-28T00:35:52;4.40;;;2.85;;
18783;SDS011;9520;50.954;6.968;2024-02-28T00:36:15;5.78;;;3.05;;
18783;SDS011;9520;50.954;6.968;2024-02-28T00:36:36;5.70;;;2.85;;
18783;SDS011;9520;50.954;6.968;2024-02-28T00:37:16;4.43;;;2.45;;
18783;SDS011;9520;50.954;6.968;2024-02-28T00:37:39;4.88;;;2.92;;
18783;SDS011;9520;50.954;6.968;2024-02-28T00:38:01;8.07;;;3.58;;
18783;SDS011;9520;50.954;6.968;2024-02-28T00:38:23;9.57;;;3.83;;
18783;SDS011;9520;50.954;6.968;2024-02-28T00:38:45;5.60;;;3.22;;
18783;SDS011;9520;50.954;6.968;2024-02-28T00:39:07;5.13;;;2.97;;
18783;SDS011;9520;50.954;6.968;2024-02-28T00:39:28;3.75;;;2.40;;
18783;SDS011;9520;50.954;6.968;2024-02-28T00:39:51;4.68;;;2.70;;
18783;SDS011;9520;50.954;6.968;2024-02-28T00:40:13;11.32;;;2.80;;
18783;SDS011;9520;50.954;6.968;2024-02-28T00:40:34;11.50;;;2.38;;
18783;SDS011;9520;50.954;6.968;2024-02-28T00:40:56;6.13;;;2.53;;
18783;SDS011;9520;50.954;6.968;2024-02-28T00:41:18;6.10;;;3.00;;
18783;SDS011;9520;50.954;6.968;2024-02-28T00:41:40;6.45;;;3.13;;
18783;SDS011;9520;50.954;6.968;2024-02-28T00:42:02;7.70;;;3.22;;
18783;SDS011;9520;50.954;6.968;2024-02-28T00:42:25;7.30;;;3.00;;
18783;SDS011;9520;50.954;6.968;2024-02-28T00:42:46;7.35;;;2.92;;
18783;SDS011;9520;50.954;6.968;2024-02-28T00:43:09;6.82;;;3.03;;
18783;SDS011;9520;50.954;6.968;2024-02-28T00:43:31;8.48;;;3.50;;
18783;SDS011;9520;50.954;6.968;2024-02-28T00:43:52;6.32;;;2.97;;
18783;SDS011;9520;50.954;6.968;2024-02-28T00:44:15;3.50;;;2.58;;
18783;SDS011;9520;50.954;6.968;2024-02-28T00:44:37;5.35;;;2.67;;
18783;SDS011;9520;50.954;6.968;2024-02-28T00:44:58;5.68;;;2.83;;
18783;SDS011;9520;50.954;6.968;2024-02-28T00:45:20;5.28;;;3.17;;
18783;SDS011;9520;50.954;6.968;2024-02-28T00:45:42;6.68;;;2.83;;
18783;SDS011;9520;50.954;6.968;2024-02-28T00:46:05;6.07;;;3.10;;
18783;SDS011;9520;50.954;6.968;2024-02-28T00:46:32;4.35;;;2.90;;
18783;SDS011;9520;50.954;6.968;2024-02-28T00:46:54;5.75;;;2.42;;
18783;SDS011;9520;50.954;6.968;2024-02-28T00:47:15;5.90;;;2.23;;
18783;SDS011;9520;50.954;6.968;2024-02-28T00:47:37;2.88;;;2.15;;
18783;SDS011;9520;50.954;6.968;2024-02-28T00:48:01;6.20;;;3.13;;
18783;SDS011;9520;50.954;6.968;2024-02-28T00:48:23;4.38;;;2.97;;
18783;SDS011;9520;50.954;6.968;2024-02-28T00:48:45;6.28;;;2.72;;
18783;SDS011;9520;50.954;6.968;2024-02-28T00:49:06;6.72;;;2.90;;
18783;SDS011;9520;50.954;6.968;2024-02-28T00:49:28;5.80;;;3.13;;
18783;SDS011;9520;50.954;6.968;2024-02-28T00:49:51;5.82;;;3.42;;
18783;SDS011;9520;50.954;6.968;2024-02-28T00:50:12;5.35;;;2.85;;
18783;SDS011;9520;50.954;6.968;2024-02-28T00:50:34;5.57;;;2.63;;
18783;SDS011;9520;50.954;6.968;2024-02-28T00:50:56;7.68;;;2.97;;
18783;SDS011;9520;50.954;6.968;2024-02-28T00:51:17;6.90;;;3.47;;
18783;SDS011;9520;50.954;6.968;2024-02-28T00:51:40;7.82;;;3.08;;
18783;SDS011;9520;50.954;6.968;2024-02-28T00:52:02;9.95;;;2.90;;
18783;SDS011;9520;50.954;6.968;2024-02-28T00:52:25;6.78;;;3.42;;
18783;SDS011;9520;50.954;6.968;2024-02-28T00:52:47;7.13;;;3.38;;
18783;SDS011;9520;50.954;6.968;2024-02-28T00:53:09;6.05;;;2.83;;
18783;SDS011;9520;50.954;6.968;2024-02-28T00:53:30;9.00;;;3.03;;
18783;SDS011;9520;50.954;6.968;2024-02-28T00:53:53;6.03;;;2.92;;
18783;SDS011;9520;50.954;6.968;2024-02-28T00:54:15;4.07;;;2.67;;
18783;SDS011;9520;50.954;6.968;2024-02-28T00:54:37;4.85;;;2.75;;
18783;SDS011;9520;50.954;6.968;2024-02-28T00:54:59;5.38;;;3.00;;
18783;SDS011;9520;50.954;6.968;2024-02-28T00:55:21;5.20;;;2.40;;
18783;SDS011;9520;50.954;6.968;2024-02-28T00:55:43;3.90;;;2.30;;
18783;SDS011;9520;50.954;6.968;2024-02-28T00:56:05;4.43;;;3.00;;
18783;SDS011;9520;50.954;6.968;2024-02-28T00:56:27;5.47;;;3.45;;
18783;SDS011;9520;50.954;6.968;2024-02-28T00:56:49;7.63;;;3.13;;
18783;SDS011;9520;50.954;6.968;2024-02-28T00:57:10;13.00;;;4.18;;
18783;SDS011;9520;50.954;6.968;2024-02-28T00:57:32;7.15;;;3.92;;
18783;SDS011;9520;50.954;6.968;2024-02-28T00:57:55;6.72;;;3.40;;
18783;SDS011;9520;50.954;6.968;2024-02-28T00:58:17;5.80;;;3.35;;
18783;SDS011;9520;50.954;6.968;2024-02-28T00:58:38;5.20;;;2.97;;
18783;SDS011;9520;50.954;6.968;2024-02-28T00:59:00;6.03;;;2.85;;
18783;SDS011;9520;50.954;6.968;2024-02-28T00:59:22;7.70;;;3.78;;
18783;SDS011;9520;50.954;6.968;2024-02-28T00:59:43;6.35;;;3.15;;
18783;SDS011;9520;50.954;6.968;2024-02-28T01:00:06;5.05;;;2.72;;
18783;SDS011;9520;50.954;6.968;2024-02-28T01:00:31;7.00;;;3.45;;
18783;SDS011;9520;50.954;6.968;2024-02-28T01:00:53;5.75;;;3.05;;
18783;SDS011;9520;50.954;6.968;2024-02-28T01:01:15;5.97;;;3.35;;
18783;SDS011;9520;50.954;6.968;2024-02-28T01:01:38;4.47;;;2.72;;
18783;SDS011;9520;50.954;6.968;2024-02-28T01:02:00;8.02;;;2.80;;
18783;SDS011;9520;50.954;6.968;2024-02-28T01:02:25;4.80;;;2.83;;
18783;SDS011;9520;50.954;6.968;2024-02-28T01:03:36;5.95;;;2.65;;
18783;SDS011;9520;50.954;6.968;2024-02-28T01:04:33;7.47;;;2.97;;
18783;SDS011;9520;50.954;6.968;2024-02-28T01:06:19;5.03;;;3.28;;
18783;SDS011;9520;50.954;6.968;2024-02-28T01:07:35;8.52;;;2.83;;
18783;SDS011;9520;50.954;6.968;2024-02-28T01:09:53;9.82;;;3.35;;
18783;SDS011;9520;50.954;6.968;2024-02-28T01:10:17;4.63;;;2.92;;
18783;SDS011;9520;50.954;6.968;2024-02-28T01:10:42;4.90;;;2.53;;
18783;SDS011;9520;50.954;6.968;2024-02-28T01:11:08;7.60;;;3.40;;
18783;SDS011;9520;50.954;6.968;2024-02-28T01:11:36;7.88;;;3.55;;
18783;SDS011;9520;50.954;6.968;2024-02-28T01:12:12;7.18;;;3.33;;
18783;SDS011;9520;50.954;6.968;2024-02-28T01:12:47;3.92;;;2.85;;
18783;SDS011;9520;50.954;6.968;2024-02-28T01:13:12;7.32;;;2.65;;
18783;SDS011;9520;50.954;6.968;2024-02-28T01:13:39;10.30;;;3.50;;
18783;SDS011;9520;50.954;6.968;2024-02-28T01:14:09;3.85;;;2.78;;
18783;SDS011;9520;50.954;6.968;2024-02-28T01:14:37;4.30;;;3.10;;
18783;SDS011;9520;50.954;6.968;2024-02-28T01:15:27;4.45;;;2.90;;
18783;SDS011;9520;50.954;6.968;2024-02-28T01:15:57;3.28;;;2.33;;
18783;SDS011;9520;50.954;6.968;2024-02-28T01:16:24;3.88;;;2.60;;
18783;SDS011;9520;50.954;6.968;2024-02-28T01:16:53;12.35;;;3.55;;
18783;SDS011;9520;50.954;6.968;2024-02-28T01:17:22;5.65;;;2.50;;
18783;SDS011;9520;50.954;6.968;2024-02-28T01:17:55;10.90;;;3.00;;
18783;SDS011;9520;50.954;6.968;2024-02-28T01:18:24;6.95;;;3.17;;
18783;SDS011;9520;50.954;6.968;2024-02-28T01:18:55;3.35;;;1.98;;
18783;SDS011;9520;50.954;6.968;2024-02-28T01:19:24;6.93;;;3.27;;
18783;SDS011;9520;50.954;6.968;2024-02-28T01:19:47;7.47;;;3.40;;
18783;SDS011;9520;50.954;6.968;2024-02-28T01:20:10;5.40;;;2.97;;
18783;SDS011;9520;50.954;6.968;2024-02-28T01:21:15;5.35;;;2.88;;
18783;SDS011;9520;50.954;6.968;2024-02-28T01:21:38;4.82;;;2.75;;
18783;SDS011;9520;50.954;6.968;2024-02-28T01:22:00;4.68;;;2.58;;
18783;SDS011;9520;50.954;6.968;2024-02-28T01:22:22;4.15;;;2.53;;
18783;SDS011;9520;50.954;6.968;2024-02-28T01:22:45;4.35;;;2.53;;
18783;SDS011;9520;50.954;6.968;2024-02-28T01:23:08;3.75;;;2.63;;
18783;SDS011;9520;50.954;6.968;2024-02-28T01:23:30;5.13;;;2.95;;
18783;SDS011;9520;50.954;6.968;2024-02-28T01:23:52;8.90;;;3.40;;
18783;SDS011;9520;50.954;6.968;2024-02-28T01:24:14;7.20;;;3.35;;
18783;SDS011;9520;50.954;6.968;2024-02-28T01:24:37;6.78;;;3.58;;
18783;SDS011;9520;50.954;6.968;2024-02-28T01:24:58;5.72;;;3.45;;
18783;SDS011;9520;50.954;6.968;2024-02-28T01:25:20;3.22;;;2.45;;
18783;SDS011;9520;50.954;6.968;2024-02-28T01:25:53;4.93;;;3.00;;
18783;SDS011;9520;50.954;6.968;2024-02-28T01:26:15;6.60;;;3.30;;
18783;SDS011;9520;50.954;6.968;2024-02-28T01:26:37;6.10;;;3.17;;
18783;SDS011;9520;50.954;6.968;2024-02-28T01:26:59;5.80;;;2.53;;
18783;SDS011;9520;50.954;6.968;2024-02-28T01:27:21;8.35;;;3.45;;
18783;SDS011;9520;50.954;6.968;2024-02-28T01:27:42;8.90;;;3.60;;
18783;SDS011;9520;50.954;6.968;2024-02-28T01:28:04;5.35;;;3.20;;
18783;SDS011;9520;50.954;6.968;2024-02-28T01:28:26;7.03;;;3.42;;
18783;SDS011;9520;50.954;6.968;2024-02-28T01:28:49;9.93;;;4.38;;
18783;SDS011;9520;50.954;6.968;2024-02-28T01:29:11;9.70;;;3.65;;
18783;SDS011;9520;50.954;6.968;2024-02-28T01:29:33;7.97;;;3.13;;
18783;SDS011;9520;50.954;6.968;2024-02-28T01:29:54;6.05;;;2.70;;
18783;SDS011;9520;50.954;6.968;2024-02-28T01:30:16;6.57;;;3.08;;
18783;SDS011;9520;50.954;6.968;2024-02-28T01:30:40;5.88;;;2.40;;
18783;SDS011;9520;50.954;6.968;2024-02-28T01:31:02;4.80;;;2.80;;
18783;SDS011;9520;50.954;6.968;2024-02-28T01:31:24;5.22;;;2.63;;
18783;SDS011;9520;50.954;6.968;2024-02-28T01:31:45;5.78;;;2.70;;
18783;SDS011;9520;50.954;6.968;2024-02-28T01:32:07;5.22;;;3.17;;
18783;SDS011;9520;50.954;6.968;2024-02-28T01:32:30;2.72;;;2.17;;
18783;SDS011;9520;50.954;6.968;2024-02-28T01:32:51;3.70;;;2.47;;
18783;SDS011;9520;50.954;6.968;2024-02-28T01:33:13;6.85;;;3.20;;
18783;SDS011;9520;50.954;6.968;2024-02-28T01:33:35;7.15;;;3.25;;
18783;SDS011;9520;50.954;6.968;2024-02-28T01:33:57;7.72;;;3.58;;
18783;SDS011;9520;50.954;6.968;2024-02-28T01:34:19;4.28;;;2.80;;
18783;SDS011;9520;50.954;6.968;2024-02-28T01:34:41;8.90;;;3.00;;
18783;SDS011;9520;50.954;6.968;2024-02-28T01:35:03;10.77;;;2.97;;
18783;SDS011;9520;50.954;6.968;2024-02-28T01:35:25;9.00;;;3.20;;
18783;SDS011;9520;50.954;6.968;2024-02-28T01:35:47;9.82;;;3.00;;
18783;SDS011;9520;50.954;6.968;2024-02-28T01:36:10;4.97;;;2.78;;
18783;SDS011;9520;50.954;6.968;2024-02-28T01:36:32;3.90;;;2.28;;
18783;SDS011;9520;50.954;6.968;2024-02-28T01:36:55;5.95;;;3.00;;
18783;SDS011;9520;50.954;6.968;2024-02-28T01:37:16;5.45;;;3.00;;
18783;SDS011;9520;50.954;6.968;2024-02-28T01:37:38;8.27;;;3.40;;
18783;SDS011;9520;50.954;6.968;2024-02-28T01:38:01;9.63;;;3.08;;
18783;SDS011;9520;50.954;6.968;2024-02-28T01:38:23;5.63;;;2.83;;
18783;SDS011;9520;50.954;6.968;2024-02-28T01:38:47;5.57;;;3.00;;
18783;SDS011;9520;50.954;6.968;2024-02-28T01:39:09;7.43;;;3.10;;
18783;SDS011;9520;50.954;6.968;2024-02-28T01:39:31;6.25;;;3.30;;
18783;SDS011;9520;50.954;6.968;2024-02-28T01:39:53;7.85;;;3.30;;
18783;SDS011;9520;50.954;6.968;2024-02-28T01:40:15;8.25;;;3.17;;
18783;SDS011;9520;50.954;6.968;2024-02-28T01:40:37;5.32;;;2.92;;
18783;SDS011;9520;50.954;6.968;2024-02-28T01:40:59;6.47;;;3.30;;
18783;SDS011;9520;50.954;6.968;2024-02-28T01:41:21;4.95;;;3.25;;
18783;SDS011;9520;50.954;6.968;2024-02-28T01:41:49;4.95;;;2.75;;
18783;SDS011;9520;50.954;6.968;2024-02-28T01:42:13;7.45;;;3.45;;
18783;SDS011;9520;50.954;6.968;2024-02-28T01:42:36;6.75;;;3.45;;
18783;SDS011;9520;50.954;6.968;2024-02-28T01:43:02;8.57;;;3.97;;
18783;SDS011;9520;50.954;6.968;2024-02-28T01:43:24;10.50;;;3.38;;
18783;SDS011;9520;50.954;6.968;2024-02-28T01:43:45;8.52;;;3.15;;
18783;SDS011;9520;50.954;6.968;2024-02-28T01:44:07;9.32;;;3.22;;
18783;SDS011;9520;50.954;6.968;2024-02-28T01:44:30;9.52;;;2.88;;
18783;SDS011;9520;50.954;6.968;2024-02-28T01:44:51;11.25;;;2.65;;
18783;SDS011;9520;50.954;6.968;2024-02-28T01:45:14;8.07;;;3.58;;
18783;SDS011;9520;50.954;6.968;2024-02-28T01:45:36;3.75;;;2.85;;
18783;SDS011;9520;50.954;6.968;2024-02-28T01:45:58;4.13;;;2.55;;
18783;SDS011;9520;50.954;6.968;2024-02-28T01:46:23;7.93;;;3.05;;
18783;SDS011;9520;50.954;6.968;2024-02-28T01:46:47;5.22;;;3.03;;
18783;SDS011;9520;50.954;6.968;2024-02-28T01:47:09;5.18;;;3.08;;
18783;SDS011;9520;50.954;6.968;2024-02-28T01:47:31;5.93;;;3.15;;
18783;SDS011;9520;50.954;6.968;2024-02-28T01:47:53;7.75;;;3.45;;
18783;SDS011;9520;50.954;6.968;2024-02-28T01:48:14;4.93;;;2.90;;
18783;SDS011;9520;50.954;6.968;2024-02-28T01:48:38;6.38;;;3.38;;
18783;SDS011;9520;50.954;6.968;2024-02-28T01:49:00;8.48;;;3.47;;
18783;SDS011;9520;50.954;6.968;2024-02-28T01:49:22;6.75;;;2.90;;
18783;SDS011;9520;50.954;6.968;2024-02-28T01:49:45;6.05;;;3.05;;
18783;SDS011;9520;50.954;6.968;2024-02-28T01:50:08;4.75;;;2.90;;
18783;SDS011;9520;50.954;6.968;2024-02-28T01:50:33;8.63;;;3.65;;
18783;SDS011;9520;50.954;6.968;2024-02-28T01:50:54;7.15;;;3.35;;
18783;SDS011;9520;50.954;6.968;2024-02-28T01:51:16;4.72;;;3.13;;
18783;SDS011;9520;50.954;6.968;2024-02-28T01:51:38;4.57;;;2.55;;
18783;SDS011;9520;50.954;6.968;2024-02-28T01:52:01;6.88;;;2.45;;
18783;SDS011;9520;50.954;6.968;2024-02-28T01:52:24;5.45;;;3.22;;
18783;SDS011;9520;50.954;6.968;2024-02-28T01:52:47;3.65;;;2.67;;
18783;SDS011;9520;50.954;6.968;2024-02-28T01:53:10;6.60;;;2.50;;
18783;SDS011;9520;50.954;6.968;2024-02-28T01:53:33;4.68;;;3.28;;
18783;SDS011;9520;50.954;6.968;2024-02-28T01:53:54;4.95;;;2.83;;
18783;SDS011;9520;50.954;6.968;2024-02-28T01:54:17;6.75;;;2.80;;
18783;SDS011;9520;50.954;6.968;2024-02-28T01:54:40;6.18;;;2.88;;
18783;SDS011;9520;50.954;6.968;2024-02-28T01:55:04;4.10;;;2.85;;
18783;SDS011;9520;50.954;6.968;2024-02-28T01:55:27;8.10;;;3.17;;
18783;SDS011;9520;50.954;6.968;2024-02-28T01:55:49;3.88;;;2.88;;
18783;SDS011;9520;50.954;6.968;2024-02-28T01:56:11;6.00;;;3.38;;
18783;SDS011;9520;50.954;6.968;2024-02-28T01:56:34;5.13;;;2.67;;
18783;SDS011;9520;50.954;6.968;2024-02-28T01:56:57;5.22;;;2.80;;
18783;SDS011;9520;50.954;6.968;2024-02-28T02:10:17;7.22;;;3.53;;
18783;SDS011;9520;50.954;6.968;2024-02-28T02:11:04;13.07;;;4.28;;
18783;SDS011;9520;50.954;6.968;2024-02-28T02:11:51;8.10;;;3.65;;
18783;SDS011;9520;50.954;6.968;2024-02-28T02:12:14;7.85;;;3.92;;
18783;SDS011;9520;50.954;6.968;2024-02-28T02:12:36;6.53;;;3.42;;
18783;SDS011;9520;50.954;6.968;2024-02-28T02:13:03;6.43;;;3.40;;
18783;SDS011;9520;50.954;6.968;2024-02-28T02:13:25;8.47;;;3.87;;
18783;SDS011;9520;50.954;6.968;2024-02-28T02:13:47;8.68;;;4.40;;
18783;SDS011;9520;50.954;6.968;2024-02-28T02:14:10;8.05;;;4.60;;
18783;SDS011;9520;50.954;6.968;2024-02-28T02:14:32;8.75;;;3.65;;
18783;SDS011;9520;50.954;6.968;2024-02-28T02:14:54;8.48;;;3.65;;
18783;SDS011;9520;50.954;6.968;2024-02-28T02:15:16;6.95;;;3.35;;
18783;SDS011;9520;50.954;6.968;2024-02-28T02:15:37;6.10;;;3.38;;
18783;SDS011;9520;50.954;6.968;2024-02-28T02:16:00;6.88;;;3.63;;
18783;SDS011;9520;50.954;6.968;2024-02-28T02:16:22;8.77;;;4.30;;
18783;SDS011;9520;50.954;6.968;2024-02-28T02:16:47;9.18;;;3.80;;
18783;SDS011;9520;50.954;6.968;2024-02-28T02:17:08;6.57;;;3.97;;
18783;SDS011;9520;50.954;6.968;2024-02-28T02:17:30;7.20;;;4.95;;
18783;SDS011;9520;50.954;6.968;2024-02-28T02:17:53;6.07;;;3.25;;
18783;SDS011;9520;50.954;6.968;2024-02-28T02:18:14;8.45;;;3.67;;
18783;SDS011;9520;50.954;6.968;2024-02-28T02:18:36;6.65;;;3.13;;
18783;SDS011;9520;50.954;6.968;2024-02-28T02:18:58;8.50;;;3.35;;
18783;SDS011;9520;50.954;6.968;2024-02-28T02:19:20;11.38;;;4.38;;
18783;SDS011;9520;50.954;6.968;2024-02-28T02:19:42;8.25;;;3.92;;
18783;SDS011;9520;50.954;6.968;2024-02-28T02:20:05;8.70;;;3.58;;
18783;SDS011;9520;50.954;6.968;2024-02-28T02:20:29;6.78;;;4.05;;
18783;SDS011;9520;50.954;6.968;2024-02-28T02:20:54;10.15;;;4.80;;
18783;SDS011;9520;50.954;6.968;2024-02-28T02:21:22;13.18;;;5.03;;
18783;SDS011;9520;50.954;6.968;2024-02-28T02:21:49;8.65;;;4.32;;
18783;SDS011;9520;50.954;6.968;2024-02-28T02:22:16;10.75;;;4.30;;
18783;SDS011;9520;50.954;6.968;2024-02-28T02:22:40;14.10;;;4.97;;
18783;SDS011;9520;50.954;6.968;2024-02-28T02:23:02;12.55;;;4.47;;
18783;SDS011;9520;50.954;6.968;2024-02-28T02:23:24;7.72;;;3.88;;
18783;SDS011;9520;50.954;6.968;2024-02-28T02:23:46;7.45;;;3.80;;
18783;SDS011;9520;50.954;6.968;2024-02-28T02:24:09;6.55;;;4.10;;
18783;SDS011;9520;50.954;6.968;2024-02-28T02:24:30;13.70;;;5.25;;
18783;SDS011;9520;50.954;6.968;2024-02-28T02:24:52;7.38;;;4.22;;
18783;SDS011;9520;50.954;6.968;2024-02-28T02:25:14;7.88;;;3.92;;
18783;SDS011;9520;50.954;6.968;2024-02-28T02:25:42;11.55;;;4.50;;
18783;SDS011;9520;50.954;6.968;2024-02-28T02:26:05;7.50;;;4.05;;
18783;SDS011;9520;50.954;6.968;2024-02-28T02:26:26;7.78;;;3.97;;
18783;SDS011;9520;50.954;6.968;2024-02-28T02:26:48;9.43;;;4.03;;
18783;SDS011;9520;50.954;6.968;2024-02-28T02:27:13;8.57;;;3.85;;
18783;SDS011;9520;50.954;6.968;2024-02-28T02:27:35;7.78;;;3.70;;
18783;SDS011;9520;50.954;6.968;2024-02-28T02:27:57;7.55;;;3.58;;
18783;SDS011;9520;50.954;6.968;2024-02-28T02:28:19;8.13;;;3.60;;
18783;SDS011;9520;50.954;6.968;2024-02-28T02:28:41;5.93;;;3.53;;
18783;SDS011;9520;50.954;6.968;2024-02-28T02:29:02;8.07;;;4.20;;
18783;SDS011;9520;50.954;6.968;2024-02-28T02:29:25;7.55;;;4.13;;
18783;SDS011;9520;50.954;6.968;2024-02-28T02:29:48;13.95;;;4.65;;
18783;SDS011;9520;50.954;6.968;2024-02-28T02:30:10;8.43;;;3.88;;
18783;SDS011;9520;50.954;6.968;2024-02-28T02:30:33;8.02;;;3.60;;
18783;SDS011;9520;50.954;6.968;2024-02-28T02:30:55;9.05;;;4.15;;
18783;SDS011;9520;50.954;6.968;2024-02-28T02:31:16;9.20;;;4.20;;
18783;SDS011;9520;50.954;6.968;2024-02-28T02:31:39;10.80;;;4.80;;
18783;SDS011;9520;50.954;6.968;2024-02-28T02:32:01;7.25;;;4.13;;
18783;SDS011;9520;50.954;6.968;2024-02-28T02:32:23;6.28;;;3.42;;
18783;SDS011;9520;50.954;6.968;2024-02-28T02:32:45;8.25;;;4.13;;
18783;SDS011;9520;50.954;6.968;2024-02-28T02:33:07;7.95;;;3.65;;
18783;SDS011;9520;50.954;6.968;2024-02-28T02:33:29;13.25;;;4.15;;
18783;SDS011;9520;50.954;6.968;2024-02-28T02:33:51;17.80;;;3.70;;
18783;SDS011;9520;50.954;6.968;2024-02-28T02:34:13;6.47;;;4.03;;
18783;SDS011;9520;50.954;6.968;2024-02-28T02:34:35;7.38;;;4.20;;
18783;SDS011;9520;50.954;6.968;2024-02-28T02:34:57;9.77;;;3.58;;
18783;SDS011;9520;50.954;6.968;2024-02-28T02:35:19;7.93;;;3.90;;
18783;SDS011;9520;50.954;6.968;2024-02-28T02:35:41;12.70;;;4.20;;
18783;SDS011;9520;50.954;6.968;2024-02-28T02:36:03;10.82;;;4.30;;
18783;SDS011;9520;50.954;6.968;2024-02-28T02:36:25;8.23;;;4.40;;
18783;SDS011;9520;50.954;6.968;2024-02-28T02:36:46;9.93;;;4.38;;
18783;SDS011;9520;50.954;6.968;2024-02-28T02:37:08;12.68;;;5.03;;
18783;SDS011;9520;50.954;6.968;2024-02-28T02:37:30;11.32;;;4.75;;
18783;SDS011;9520;50.954;6.968;2024-02-28T02:37:54;10.35;;;4.28;;
18783;SDS011;9520;50.954;6.968;2024-02-28T02:38:15;6.63;;;3.90;;
18783;SDS011;9520;50.954;6.968;2024-02-28T02:38:37;5.32;;;3.42;;
18783;SDS011;9520;50.954;6.968;2024-02-28T02:38:59;6.72;;;3.67;;
18783;SDS011;9520;50.954;6.968;2024-02-28T02:39:20;6.38;;;3.72;;
18783;SDS011;9520;50.954;6.968;2024-02-28T02:39:43;6.07;;;3.10;;